Time;durP1;ratioP1;P1;durP2;ratioP2;P2;SDS_P1;SDS_P2;PMS_P1;PMS_P2;Temp;Humidity;BMP_temperature;BMP_pressure;BME280_temperature;BME280_humidity;BME280_pressure;Samples;Min_cycle;Max_cycle;Signal;HPM_P1;HPM_P2
2022/05/27 00:03:27;;;;;;;5.15;1.15;;;;;;;15.18;90.41;101014.44;20900957;28;20041;-67
2022/05/27 00:13:29;;;;;;;4.78;1.77;;;;;;;15.04;91.58;101010.41;20901219;28;20041;-68
2022/05/27 00:23:31;;;;;;;4.78;1.45;;;;;;;14.88;92.46;101007.25;20901053;28;20057;-69
2022/05/27 00:33:34;;;;;;;4.70;1.60;;;;;;;14.75;93.14;100983.84;20899578;28;20332;-68
2022/05/27 00:43:36;;;;;;;4.45;1.90;;;;;;;14.74;93.95;100987.38;20899474;28;20094;-68
2022/05/27 00:53:43;;;;;;;4.10;1.80;;;;;;;14.83;93.55;100981.91;20899696;28;20053;-68
2022/05/27 01:03:46;;;;;;;5.72;1.88;;;;;;;14.73;94.04;100978.63;20898659;28;20640;-68
2022/05/27 01:14:06;;;;;;;4.53;1.90;;;;;;;14.70;93.72;100978.69;20913084;28;20137;-67
2022/05/27 01:24:08;;;;;;;5.80;1.90;;;;;;;14.55;95.42;100974.63;20913975;28;20060;-68
2022/05/27 01:34:37;;;;;;;4.88;2.00;;;;;;;14.50;96.39;100960.69;20915277;28;20049;-68
2022/05/27 01:44:58;;;;;;;3.88;1.83;;;;;;;14.45;96.52;100970.44;20912526;28;20057;-69
2022/05/27 01:55:04;;;;;;;5.03;1.90;;;;;;;14.42;96.34;100960.00;20912133;28;20059;-69
2022/05/27 02:05:20;;;;;;;4.20;1.80;;;;;;;14.29;97.91;100955.91;20909693;28;20470;-69
2022/05/27 02:15:45;;;;;;;6.65;2.22;;;;;;;14.20;99.05;100958.72;20911068;28;20053;-69
2022/05/27 02:25:48;;;;;;;6.13;2.20;;;;;;;14.09;99.31;100946.66;20909523;28;20049;-69
2022/05/27 02:35:53;;;;;;;5.65;2.55;;;;;;;14.01;100.00;100955.63;20908100;28;20072;-69
2022/05/27 02:45:54;;;;;;;;;;;;;;;13.96;100.00;100939.91;20945922;28;20052;-69
2022/05/27 02:56:12;;;;;;;5.90;3.00;;;;;;;13.94;100.00;100932.94;20990689;28;20335;-69
2022/05/27 03:06:26;;;;;;;6.32;2.55;;;;;;;13.86;100.00;100930.47;20988977;28;20044;-69
2022/05/27 03:17:04;;;;;;;7.30;2.70;;;;;;;13.83;100.00;100930.53;20987386;28;20090;-69
2022/05/27 03:27:17;;;;;;;6.82;2.90;;;;;;;13.85;100.00;100941.91;20986623;28;20052;-69
2022/05/27 03:37:26;;;;;;;7.32;3.17;;;;;;;13.94;100.00;100940.84;20985641;28;20052;-68
2022/05/27 03:47:27;;;;;;;7.72;3.85;;;;;;;14.34;100.00;100951.38;20985744;28;20049;-69
2022/05/27 03:57:29;;;;;;;7.55;3.80;;;;;;;14.54;99.04;100956.22;20984903;28;20074;-69
2022/05/27 04:07:30;;;;;;;9.35;3.85;;;;;;;14.65;98.47;100970.00;20983935;28;20554;-69
2022/05/27 04:17:32;;;;;;;7.07;4.35;;;;;;;14.77;97.23;100968.88;20923989;28;20072;-69
2022/05/27 04:27:34;;;;;;;10.13;3.45;;;;;;;14.86;97.45;100973.94;20900389;28;20106;-69
2022/05/27 04:37:36;;;;;;;8.27;4.72;;;;;;;14.95;97.41;101000.06;20900660;28;20085;-70
2022/05/27 04:47:38;;;;;;;8.90;4.07;;;;;;;14.97;96.90;100995.63;20915946;28;20049;-70
2022/05/27 04:57:43;;;;;;;8.07;4.18;;;;;;;15.03;96.59;101000.72;20916817;28;20055;-70
2022/05/27 05:07:49;;;;;;;7.45;4.05;;;;;;;15.20;94.97;101010.03;20915777;28;20048;-69
2022/05/27 05:17:51;;;;;;;6.88;4.55;;;;;;;15.23;93.08;100999.38;20913217;28;20056;-70
2022/05/27 05:27:52;;;;;;;8.15;4.45;;;;;;;15.34;91.81;101002.63;20960300;28;20083;-70
2022/05/27 05:37:54;;;;;;;7.55;4.20;;;;;;;15.37;91.73;101010.44;20994875;28;20051;-69
2022/05/27 05:47:56;;;;;;;6.80;3.85;;;;;;;15.50;90.58;101013.63;20994764;28;20060;-70
2022/05/27 05:57:57;;;;;;;10.40;4.32;;;;;;;15.49;90.23;101001.34;20993577;28;20041;-70
2022/05/27 06:08:04;;;;;;;6.78;3.17;;;;;;;15.55;90.76;101009.09;20993268;28;20052;-69
2022/05/27 06:18:07;;;;;;;5.35;3.45;;;;;;;15.62;91.12;101002.78;20992578;28;20059;-70
2022/05/27 06:38:28;;;;;;;6.00;2.80;;;;;;;15.76;89.71;100981.28;20991502;28;20417;-69
2022/05/27 06:48:30;;;;;;;5.35;3.00;;;;;;;15.90;88.94;100997.59;20990220;28;20574;-69
2022/05/27 06:58:31;;;;;;;6.07;2.70;;;;;;;16.04;89.19;101002.50;20990146;28;20044;-69
2022/05/27 07:08:34;;;;;;;6.50;2.78;;;;;;;16.07;88.39;101008.56;20946651;28;20049;-69
2022/05/27 07:18:35;;;;;;;5.25;2.70;;;;;;;16.16;87.98;101013.59;20936738;28;20057;-70
2022/05/27 07:28:37;;;;;;;6.68;2.30;;;;;;;16.06;88.24;101004.19;20915429;28;20102;-69
2022/05/27 07:38:39;;;;;;;3.88;2.42;;;;;;;16.26;87.11;101005.41;20946744;28;20090;-69
2022/05/27 07:48:41;;;;;;;6.55;3.33;;;;;;;16.50;86.86;101006.44;20912062;28;20044;-69
2022/05/27 07:58:44;;;;;;;6.30;3.47;;;;;;;16.57;86.10;101007.97;20913137;28;20048;-68
2022/05/27 08:08:47;;;;;;;4.85;2.80;;;;;;;17.06;84.99;100998.53;20893887;28;20490;-69
2022/05/27 08:18:49;;;;;;;6.88;2.70;;;;;;;17.48;80.91;100990.88;20968067;28;20450;-67
2022/05/27 08:28:50;;;;;;;4.82;2.50;;;;;;;17.61;82.07;101008.09;20974487;28;20471;-70
2022/05/27 08:38:53;;;;;;;3.15;1.77;;;;;;;17.14;81.73;101007.91;20975505;28;20488;-70
2022/05/27 08:49:00;;;;;;;5.18;2.60;;;;;;;17.53;80.69;101010.13;20974512;28;20048;-69
2022/05/27 08:59:37;;;;;;;3.92;2.05;;;;;;;17.88;79.63;101000.97;20974943;28;20178;-69
2022/05/27 09:09:39;;;;;;;4.18;1.90;;;;;;;18.03;76.82;101010.16;20972255;28;20421;-69
2022/05/27 09:19:57;;;;;;;3.60;1.88;;;;;;;18.00;76.57;100994.34;20892461;28;20057;-69
2022/05/27 09:30:04;;;;;;;5.07;2.00;;;;;;;17.87;78.85;100996.59;20897802;28;20075;-69
2022/05/27 09:40:38;;;;;;;4.45;2.40;;;;;;;19.05;74.35;100981.41;20905028;28;20486;-69
2022/05/27 09:50:44;;;;;;;4.90;1.50;;;;;;;19.38;67.68;100972.97;20901104;28;20052;-68
2022/05/27 10:00:51;;;;;;;3.83;1.42;;;;;;;19.53;63.15;100968.78;20903420;28;20037;-68
2022/05/27 10:11:17;;;;;;;4.50;1.60;;;;;;;19.61;63.75;100964.03;20907039;28;20421;-68
2022/05/27 10:21:19;;;;;;;4.22;1.83;;;;;;;20.16;60.26;100950.88;20979469;28;20106;-67
2022/05/27 10:31:21;;;;;;;3.65;1.75;;;;;;;20.15;60.82;100950.00;20983728;28;20475;-68
2022/05/27 10:41:39;;;;;;;5.53;1.67;;;;;;;20.06;63.02;100942.47;20982811;28;20048;-68
2022/05/27 10:51:59;;;;;;;3.67;1.80;;;;;;;19.63;64.53;100946.22;20981913;28;20063;-69
2022/05/27 11:02:33;;;;;;;3.78;1.70;;;;;;;19.66;63.69;100943.44;20981230;28;20074;-69
2022/05/27 11:23:44;;;;;;;5.30;1.70;;;;;;;19.06;69.15;100953.94;20979752;28;20533;-69
2022/05/27 11:34:04;;;;;;;3.53;1.70;;;;;;;19.15;69.44;100940.28;20978710;28;20389;-69
2022/05/27 11:44:26;;;;;;;5.55;1.70;;;;;;;19.12;69.77;100940.44;20978390;28;20497;-69
2022/05/27 11:54:41;;;;;;;3.70;1.42;;;;;;;19.38;69.37;100938.44;20977332;28;20044;-68
2022/05/27 12:04:56;;;;;;;4.22;2.00;;;;;;;19.56;67.86;100924.34;20976043;28;20394;-68
2022/05/27 12:15:06;;;;;;;3.60;1.38;;;;;;;19.45;67.26;100931.91;20932220;28;20095;-68
2022/05/27 12:25:14;;;;;;;2.33;1.20;;;;;;;19.52;67.61;100937.84;20892549;28;20079;-68
2022/05/27 12:35:21;;;;;;;4.07;1.50;;;;;;;19.43;69.60;100928.47;20892250;28;20048;-68
2022/05/27 12:45:53;;;;;;;3.45;1.48;;;;;;;18.96;70.95;100944.63;20892489;28;20055;-68
2022/05/27 13:06:35;;;;;;;5.68;1.40;;;;;;;18.68;74.60;100945.81;20915611;28;20056;-69
2022/05/27 13:17:03;;;;;;;3.55;1.30;;;;;;;18.96;73.62;100944.63;20989124;28;20055;-68
2022/05/27 13:27:18;;;;;;;2.92;1.10;;;;;;;18.91;74.80;100933.34;20988992;28;20048;-68
2022/05/27 13:37:41;;;;;;;2.78;1.30;;;;;;;19.08;72.91;100924.69;20987563;28;20570;-68
2022/05/27 13:47:46;;;;;;;3.53;1.20;;;;;;;19.10;73.27;100917.53;20988007;28;20060;-67
2022/05/27 13:57:47;;;;;;;2.40;1.20;;;;;;;18.74;74.98;100927.91;20987556;28;20128;-68
2022/05/27 14:07:52;;;;;;;3.03;1.40;;;;;;;18.77;74.95;100915.34;20985506;28;20060;-68
2022/05/27 14:17:54;;;;;;;7.90;0.97;;;;;;;19.28;73.23;100908.78;20984726;28;20048;-69
2022/05/27 14:27:59;;;;;;;5.25;1.70;;;;;;;19.21;74.43;100888.72;20984582;28;20048;-69
2022/05/27 14:38:09;;;;;;;3.08;1.10;;;;;;;19.62;70.33;100865.66;20982701;28;20051;-68
2022/05/27 14:48:26;;;;;;;3.75;1.30;;;;;;;19.89;70.79;100854.69;20982127;28;20513;-68
2022/05/27 14:58:32;;;;;;;3.75;1.10;;;;;;;19.75;71.94;100857.13;20981589;28;20055;-68
2022/05/27 15:08:35;;;;;;;3.80;1.20;;;;;;;20.45;67.64;100854.59;20980441;28;20515;-68
2022/05/27 15:18:51;;;;;;;3.60;1.20;;;;;;;20.10;70.19;100855.47;20906547;28;20037;-68
2022/05/27 15:39:17;;;;;;;3.92;1.17;;;;;;;20.67;65.07;100830.47;20894840;28;20053;-69
2022/05/27 15:49:19;;;;;;;3.63;1.60;;;;;;;20.27;68.04;100825.41;20895436;28;20052;-68
2022/05/27 15:59:22;;;;;;;2.88;1.25;;;;;;;20.59;65.29;100816.69;20894761;28;20482;-65
2022/05/27 16:09:23;;;;;;;1.88;0.88;;;;;;;20.53;63.91;100810.84;20893348;28;20045;-66
2022/05/27 16:19:25;;;;;;;2.30;1.17;;;;;;;20.45;62.83;100803.19;20973631;28;20415;-66
2022/05/27 16:29:26;;;;;;;2.80;1.20;;;;;;;20.47;62.75;100785.41;20938646;28;20053;-66
2022/05/27 16:39:28;;;;;;;1.80;1.00;;;;;;;20.66;61.69;100790.66;20890442;28;20103;-66
2022/05/27 16:49:29;;;;;;;2.17;1.10;;;;;;;20.46;59.45;100784.50;20927865;28;20049;-66
2022/05/27 16:59:31;;;;;;;3.42;1.33;;;;;;;20.62;60.86;100784.63;20974358;28;20048;-66
2022/05/27 17:09:33;;;;;;;2.75;1.00;;;;;;;20.48;60.53;100781.81;20972833;28;20053;-67
2022/05/27 17:19:34;;;;;;;2.08;1.02;;;;;;;20.39;60.27;100772.44;20973000;28;20829;-66
2022/05/27 17:29:37;;;;;;;1.58;0.90;;;;;;;20.42;61.57;100766.13;20973182;28;20059;-67
2022/05/27 17:39:39;;;;;;;2.60;0.90;;;;;;;20.48;60.29;100763.19;20971232;28;20425;-68
2022/05/27 18:00:00;;;;;;;2.75;1.08;;;;;;;20.25;59.63;100770.47;20986561;28;20386;-66
2022/05/27 18:10:03;;;;;;;3.78;1.10;;;;;;;20.30;60.41;100772.06;20981746;28;20110;-66
2022/05/27 18:20:05;;;;;;;2.55;0.88;;;;;;;20.07;59.82;100773.19;20969910;28;20053;-65
2022/05/27 18:30:09;;;;;;;2.35;1.10;;;;;;;19.47;62.99;100770.72;20983646;28;20416;-66
2022/05/27 18:40:11;;;;;;;2.47;1.20;;;;;;;19.20;67.39;100776.34;20978911;28;20045;-66
2022/05/27 18:50:15;;;;;;;3.08;1.27;;;;;;;18.85;69.21;100782.38;20982293;28;20416;-67
2022/05/27 19:00:19;;;;;;;1.77;1.15;;;;;;;18.49;70.85;100790.94;20981110;28;20048;-69
2022/05/27 19:10:22;;;;;;;2.87;1.30;;;;;;;18.19;73.91;100809.00;20980081;28;20505;-66
2022/05/27 19:30:43;;;;;;;4.13;1.60;;;;;;;17.57;78.65;100815.81;20978351;28;20493;-67
2022/05/27 19:40:46;;;;;;;3.83;1.70;;;;;;;17.50;78.91;100824.91;20977235;28;20045;-66
2022/05/27 19:50:51;;;;;;;4.88;2.00;;;;;;;17.30;80.03;100819.50;20977534;28;20048;-66
2022/05/27 20:00:53;;;;;;;4.13;1.70;;;;;;;17.11;80.99;100828.13;20974627;28;20493;-67
2022/05/27 20:11:09;;;;;;;5.20;2.05;;;;;;;16.99;81.39;100833.81;20976847;28;20916;-68
2022/05/27 20:21:15;;;;;;;3.58;1.40;;;;;;;16.99;81.45;100836.47;20976417;28;20117;-67
2022/05/27 20:31:18;;;;;;;5.28;1.88;;;;;;;16.95;81.25;100840.13;20973970;28;20056;-67
2022/05/27 20:41:20;;;;;;;6.53;1.60;;;;;;;16.95;81.53;100845.44;20973875;28;20045;-67
2022/05/27 20:51:22;;;;;;;5.47;1.60;;;;;;;17.05;81.01;100846.81;20974789;28;20056;-66
2022/05/27 21:01:24;;;;;;;3.13;1.25;;;;;;;17.03;81.21;100851.31;20973913;28;20105;-67
2022/05/27 21:11:30;;;;;;;3.70;1.65;;;;;;;16.95;82.85;100848.06;20958868;28;20049;-66
2022/05/27 21:21:33;;;;;;;5.43;1.70;;;;;;;16.81;85.35;100853.84;20890654;28;20074;-66
2022/05/27 21:31:35;;;;;;;2.75;1.50;;;;;;;16.63;85.04;100846.53;20903807;28;20415;-66
2022/05/27 21:41:37;;;;;;;4.72;1.83;;;;;;;16.57;85.22;100850.22;20905307;28;20056;-66
2022/05/27 21:51:39;;;;;;;4.35;1.75;;;;;;;16.22;86.14;100898.06;20904356;28;20056;-66
2022/05/27 22:01:40;;;;;;;6.65;1.83;;;;;;;16.57;72.17;100889.00;20905300;28;20045;-66
2022/05/27 22:22:03;;;;;;;10.05;2.67;;;;;;;16.33;60.77;100896.81;20996041;28;20079;-74
2022/05/27 22:32:04;;;;;;;10.30;2.95;;;;;;;16.05;57.91;100888.88;20992642;28;20102;-72
2022/05/27 22:42:06;;;;;;;12.27;3.03;;;;;;;15.88;58.67;100889.38;20992804;28;20047;-72
2022/05/27 22:52:08;;;;;;;10.18;2.75;;;;;;;15.39;56.75;100882.84;20992201;28;20295;-73
2022/05/27 23:02:13;;;;;;;10.18;2.80;;;;;;;15.17;54.71;100875.56;20991322;28;20040;-74
2022/05/27 23:18:18;;;;;;;;;;;;;;;14.95;53.47;100881.41;20991194;28;20098;-74
2022/05/27 23:22:36;;;;;;;14.10;3.08;;;;;;;14.86;53.90;100873.75;20989966;28;19924;-73
2022/05/27 23:32:37;;;;;;;12.23;2.22;;;;;;;14.63;53.97;100880.47;20988237;28;20102;-74
2022/05/27 23:42:39;;;;;;;9.63;1.95;;;;;;;14.60;54.38;100887.56;20988052;28;20048;-75
2022/05/27 23:52:41;;;;;;;8.60;2.38;;;;;;;14.40;54.82;100880.09;20986916;28;20166;-74
